createdAt,value
2022-12-09T00:00:32.475Z,38.36
2022-12-09T00:03:36.221Z,38.53
2022-12-09T00:06:40.757Z,38.64
2022-12-09T00:09:43.867Z,38.48
2022-12-09T00:12:46.857Z,38.69
2022-12-09T00:15:50.105Z,38.64
2022-12-09T00:18:53.912Z,38.45
2022-12-09T00:21:58.454Z,38.27
2022-12-09T00:25:01.477Z,38.21
2022-12-09T00:28:04.606Z,38.21
2022-12-09T00:31:08.553Z,38.26
2022-12-09T00:34:14.131Z,38.35
2022-12-09T00:37:18.779Z,38.37
2022-12-09T00:40:21.932Z,38.11
2022-12-09T00:43:25.008Z,38.30
2022-12-09T00:46:28.467Z,38.02
2022-12-09T00:49:31.802Z,38.41
2022-12-09T00:52:36.406Z,38.10
2022-12-09T00:55:39.834Z,38.08
2022-12-09T00:58:43.021Z,37.82
2022-12-09T01:01:46.159Z,38.30
2022-12-09T01:04:51.681Z,38.27
2022-12-09T01:07:56.857Z,37.65
2022-12-09T01:10:59.969Z,38.16
2022-12-09T01:14:04.674Z,38.12
2022-12-09T01:17:07.820Z,37.94
2022-12-09T01:20:12.259Z,37.85
2022-12-09T01:23:16.853Z,38.08
2022-12-09T01:26:19.970Z,38.00
2022-12-09T01:29:23.284Z,37.53
2022-12-09T01:32:26.938Z,37.99
2022-12-09T01:35:30.112Z,37.76
2022-12-09T01:38:34.523Z,37.66
2022-12-09T01:41:37.743Z,37.86
2022-12-09T01:44:40.883Z,38.11
2022-12-09T01:47:44.407Z,37.88
2022-12-09T01:50:51.854Z,38.02
2022-12-09T01:53:57.304Z,37.92
2022-12-09T01:57:00.654Z,38.03
2022-12-09T02:00:04.264Z,37.85
2022-12-09T02:03:08.678Z,37.58
2022-12-09T02:06:12.097Z,38.12
2022-12-09T02:09:16.672Z,37.98
2022-12-09T02:12:31.499Z,38.09
2022-12-09T02:15:43.587Z,38.03
2022-12-09T02:18:52.321Z,38.12
2022-12-09T02:21:59.431Z,37.62
2022-12-09T02:25:13.917Z,37.84
2022-12-09T02:28:35.824Z,37.85
2022-12-09T02:31:57.434Z,37.90
2022-12-09T02:35:09.517Z,37.76
2022-12-09T02:38:15.700Z,37.91
2022-12-09T02:41:23.242Z,37.93
2022-12-09T02:44:28.204Z,37.91
2022-12-09T02:47:34.256Z,37.54
2022-12-09T02:50:42.389Z,38.03
2022-12-09T02:53:50.050Z,37.52
2022-12-09T02:56:57.133Z,37.65
2022-12-09T03:00:00.657Z,37.62
2022-12-09T03:03:07.663Z,37.33
2022-12-09T03:06:17.905Z,37.88
2022-12-09T03:09:26.540Z,37.66
2022-12-09T03:12:34.192Z,37.53
2022-12-09T03:15:39.998Z,37.52
2022-12-09T03:18:46.504Z,37.35
2022-12-09T03:21:56.667Z,37.76
2022-12-09T03:25:06.278Z,37.39
2022-12-09T03:28:14.529Z,37.59
2022-12-09T03:31:23.009Z,37.58
2022-12-09T03:34:31.742Z,37.65
2022-12-09T03:37:38.772Z,37.61
2022-12-09T03:40:43.486Z,37.42
2022-12-09T03:43:53.082Z,37.42
2022-12-09T03:46:56.451Z,37.38
2022-12-09T03:49:59.915Z,37.61
2022-12-09T03:53:08.241Z,37.52
2022-12-09T03:56:16.673Z,37.50
2022-12-09T03:59:20.547Z,37.43
2022-12-09T04:02:24.025Z,37.59
2022-12-09T04:05:27.833Z,37.69
2022-12-09T04:08:32.369Z,37.66
2022-12-09T04:11:35.646Z,37.56
2022-12-09T04:14:39.124Z,37.36
2022-12-09T04:17:42.418Z,37.66
2022-12-09T04:20:45.611Z,37.39
2022-12-09T04:23:50.205Z,37.11
2022-12-09T04:26:53.290Z,37.21
2022-12-09T04:29:56.395Z,37.81
2022-12-09T04:33:00.843Z,37.58
2022-12-09T04:36:06.368Z,37.91
2022-12-09T04:39:10.793Z,37.97
2022-12-09T04:42:13.817Z,38.06
2022-12-09T04:45:17.207Z,37.92
2022-12-09T04:48:20.478Z,37.74
2022-12-09T04:51:23.632Z,38.11
2022-12-09T04:54:28.279Z,37.87
2022-12-09T04:57:31.477Z,37.98
2022-12-09T05:00:34.532Z,37.98
2022-12-09T05:03:38.557Z,37.97
2022-12-09T05:06:41.812Z,38.38
2022-12-09T05:09:46.658Z,38.25
2022-12-09T05:12:50.240Z,38.38
2022-12-09T05:15:53.495Z,39.67
2022-12-09T05:18:57.167Z,39.69
2022-12-09T05:22:00.538Z,40.79
2022-12-09T05:25:05.716Z,40.67
2022-12-09T05:28:09.019Z,40.44
2022-12-09T05:31:15.528Z,40.30
2022-12-09T05:34:19.150Z,40.23
2022-12-09T05:37:22.397Z,39.86
2022-12-09T05:40:27.018Z,40.32
2022-12-09T05:43:30.158Z,40.08
2022-12-09T05:46:33.743Z,39.49
2022-12-09T05:49:39.054Z,39.53
2022-12-09T05:52:42.672Z,39.25
2022-12-09T05:55:47.286Z,39.17
2022-12-09T05:58:51.095Z,39.43
2022-12-09T06:01:55.092Z,39.15
2022-12-09T06:04:58.648Z,39.21
2022-12-09T06:08:06.553Z,38.72
2022-12-09T06:11:14.062Z,38.97
2022-12-09T06:14:17.947Z,38.60
2022-12-09T06:17:21.494Z,38.94
2022-12-09T06:20:25.150Z,38.58
2022-12-09T06:23:28.729Z,38.53
2022-12-09T06:26:33.305Z,38.61
2022-12-09T06:29:36.599Z,38.83
2022-12-09T06:32:40.109Z,38.80
2022-12-09T06:35:43.456Z,38.36
2022-12-09T06:38:47.272Z,38.58
2022-12-09T06:41:52.133Z,38.59
2022-12-09T06:44:55.230Z,38.21
2022-12-09T06:47:58.784Z,38.28
2022-12-09T06:51:02.096Z,38.32
2022-12-09T06:54:07.095Z,38.16
2022-12-09T06:57:12.064Z,38.37
2022-12-09T07:00:16.497Z,38.36
2022-12-09T07:03:19.915Z,38.47
2022-12-09T07:06:28.258Z,38.75
2022-12-09T07:09:31.842Z,38.54
2022-12-09T07:12:36.579Z,38.97
2022-12-09T07:15:39.786Z,39.00
2022-12-09T07:18:43.134Z,39.58
2022-12-09T07:21:46.979Z,39.68
2022-12-09T07:24:50.487Z,39.37
2022-12-09T07:27:55.241Z,39.26
2022-12-09T07:30:58.746Z,39.45
2022-12-09T07:34:02.901Z,39.74
2022-12-09T07:37:06.521Z,38.98
2022-12-09T07:40:10.467Z,39.55
2022-12-09T07:43:15.043Z,39.42
2022-12-09T07:46:19.985Z,39.40
2022-12-09T07:49:24.046Z,39.38
2022-12-09T07:52:27.657Z,39.18
2022-12-09T07:55:31.264Z,39.08
2022-12-09T07:58:36.372Z,38.70
2022-12-09T08:01:40.262Z,39.15
2022-12-09T08:04:44.139Z,38.96
2022-12-09T08:07:47.525Z,38.72
2022-12-09T08:10:50.957Z,38.81
2022-12-09T08:13:58.246Z,38.99
2022-12-09T08:17:01.877Z,38.67
2022-12-09T08:20:06.618Z,38.66
2022-12-09T08:23:10.393Z,38.82
2022-12-09T08:26:14.541Z,39.02
2022-12-09T08:29:20.048Z,38.62
2022-12-09T08:32:23.410Z,38.30
2022-12-09T08:35:29.984Z,38.41
2022-12-09T08:38:33.373Z,38.39
2022-12-09T08:41:39.079Z,38.79
2022-12-09T08:44:44.730Z,38.28
2022-12-09T08:47:48.328Z,38.78
2022-12-09T08:50:51.742Z,38.06
2022-12-09T08:53:55.280Z,38.72
2022-12-09T08:56:59.161Z,38.42
2022-12-09T09:00:04.431Z,38.29
2022-12-09T09:03:08.516Z,38.80
2022-12-09T09:06:12.354Z,38.14
2022-12-09T09:09:16.130Z,38.53
2022-12-09T09:12:19.597Z,38.29
2022-12-09T09:15:25.167Z,38.03
2022-12-09T09:18:29.388Z,38.03
2022-12-09T09:21:33.848Z,38.07
2022-12-09T09:24:37.128Z,37.97
2022-12-09T09:27:40.386Z,37.99
2022-12-09T09:30:45.922Z,38.40
2022-12-09T09:33:50.137Z,38.45
2022-12-09T09:36:54.281Z,37.98
2022-12-09T09:39:58.252Z,38.58
2022-12-09T09:43:02.833Z,38.50
2022-12-09T09:46:07.822Z,38.27
2022-12-09T09:49:15.758Z,38.26
2022-12-09T09:52:21.140Z,37.99
2022-12-09T09:55:34.874Z,38.16
2022-12-09T09:58:43.545Z,37.97
2022-12-09T10:01:58.436Z,38.38
2022-12-09T10:05:12.170Z,38.28
2022-12-09T10:08:30.258Z,37.97
2022-12-09T10:11:40.918Z,38.00
2022-12-09T10:14:53.022Z,38.29
2022-12-09T10:18:10.410Z,38.18
2022-12-09T10:21:17.937Z,37.81
2022-12-09T10:24:30.892Z,37.93
2022-12-09T10:27:42.697Z,38.46
2022-12-09T10:30:46.218Z,38.22
2022-12-09T10:33:51.373Z,38.21
2022-12-09T10:36:55.390Z,38.21
2022-12-09T10:40:07.704Z,37.80
2022-12-09T10:43:38.991Z,37.82
2022-12-09T10:46:42.719Z,38.09
2022-12-09T10:49:49.622Z,38.36
2022-12-09T10:52:53.472Z,38.16
2022-12-09T10:55:59.034Z,38.18
2022-12-09T10:59:13.562Z,38.18
2022-12-09T11:02:21.352Z,38.21
2022-12-09T11:05:28.798Z,37.93
2022-12-09T11:08:33.225Z,38.19
2022-12-09T11:11:42.112Z,38.09
2022-12-09T11:14:52.446Z,38.44
2022-12-09T11:17:59.524Z,38.00
2022-12-09T11:21:07.227Z,38.47
2022-12-09T11:24:22.344Z,38.13
2022-12-09T11:27:29.650Z,38.09
2022-12-09T11:30:36.475Z,38.52
2022-12-09T11:33:49.175Z,37.96
2022-12-09T11:36:56.656Z,38.45
2022-12-09T11:39:59.772Z,37.86
2022-12-09T11:43:03.665Z,38.14
2022-12-09T11:46:19.886Z,38.27
2022-12-09T11:49:24.390Z,38.51
2022-12-09T11:52:30.957Z,38.51
2022-12-09T11:55:35.092Z,38.18
2022-12-09T11:58:44.070Z,38.40
2022-12-09T12:01:53.672Z,37.71
2022-12-09T12:05:03.496Z,38.39
2022-12-09T12:08:18.309Z,38.29
2022-12-09T12:11:28.417Z,38.15
2022-12-09T12:14:32.265Z,38.19
2022-12-09T12:17:43.057Z,38.33
2022-12-09T12:21:01.111Z,38.04
2022-12-09T12:24:24.964Z,38.27
2022-12-09T12:27:39.781Z,38.35
2022-12-09T12:30:51.197Z,38.28
2022-12-09T12:34:24.280Z,38.03
2022-12-09T12:37:39.979Z,38.18
2022-12-09T12:40:53.288Z,38.52
2022-12-09T12:44:41.450Z,38.61
2022-12-09T12:47:49.417Z,38.19
2022-12-09T12:51:04.024Z,38.10
2022-12-09T12:54:21.299Z,38.09
2022-12-09T12:57:35.521Z,38.37
2022-12-09T13:00:45.016Z,38.39
2022-12-09T13:03:58.787Z,38.32
2022-12-09T13:07:07.263Z,37.97
2022-12-09T13:10:20.455Z,38.00
2022-12-09T13:13:30.416Z,38.42
2022-12-09T13:16:37.320Z,38.13
2022-12-09T13:19:43.758Z,38.21
2022-12-09T13:22:52.917Z,38.53
2022-12-09T13:26:06.894Z,38.05
2022-12-09T13:29:30.099Z,38.40
2022-12-09T13:33:14.822Z,38.21
2022-12-09T13:36:23.035Z,38.14
2022-12-09T13:39:58.440Z,38.08
2022-12-09T13:43:11.170Z,38.32
2022-12-09T13:46:23.278Z,38.46
2022-12-09T13:49:27.435Z,38.61
2022-12-09T13:52:56.660Z,38.53
2022-12-09T13:56:02.994Z,38.31
2022-12-09T13:59:40.139Z,38.21
2022-12-09T14:02:55.153Z,38.51
2022-12-09T14:06:02.012Z,38.36
2022-12-09T14:09:16.807Z,38.66
2022-12-09T14:12:53.189Z,38.27
2022-12-09T14:16:17.522Z,38.31
2022-12-09T14:19:53.556Z,38.28
2022-12-09T14:23:14.369Z,38.53
2022-12-09T14:26:35.033Z,38.24
2022-12-09T14:29:53.243Z,38.41
2022-12-09T14:32:57.883Z,38.23
2022-12-09T14:36:05.748Z,38.68
2022-12-09T14:39:25.995Z,38.34
2022-12-09T14:42:41.969Z,38.56
2022-12-09T14:45:51.313Z,38.51
2022-12-09T14:48:57.811Z,38.41
2022-12-09T14:52:04.947Z,38.26
2022-12-09T14:55:10.159Z,38.60
2022-12-09T14:58:21.895Z,38.27
2022-12-09T15:01:24.977Z,38.41
2022-12-09T15:04:32.477Z,38.66
2022-12-09T15:07:37.056Z,38.15
2022-12-09T15:10:40.315Z,38.60
2022-12-09T15:13:48.264Z,38.50
2022-12-09T15:16:52.422Z,38.65
2022-12-09T15:20:12.112Z,38.11
2022-12-09T15:23:20.697Z,38.16
2022-12-09T15:26:26.997Z,38.35
2022-12-09T15:29:31.983Z,38.23
2022-12-09T15:32:39.692Z,38.57
2022-12-09T15:35:44.890Z,38.64
2022-12-09T15:38:52.876Z,38.97
2022-12-09T15:42:09.600Z,39.10
2022-12-09T15:45:16.634Z,39.81
2022-12-09T15:48:22.943Z,40.32
2022-12-09T15:51:27.823Z,40.41
2022-12-09T15:54:37.572Z,40.62
2022-12-09T15:57:41.611Z,40.08
2022-12-09T16:00:48.880Z,40.65
2022-12-09T16:03:53.894Z,40.29
2022-12-09T16:06:57.856Z,40.36
2022-12-09T16:10:10.615Z,40.20
2022-12-09T16:13:16.051Z,40.38
2022-12-09T16:16:27.980Z,40.31
2022-12-09T16:19:36.477Z,40.36
2022-12-09T16:22:42.839Z,40.34
2022-12-09T16:25:49.919Z,40.28
2022-12-09T16:28:58.738Z,40.27
2022-12-09T16:32:24.942Z,40.13
2022-12-09T16:35:34.669Z,40.79
2022-12-09T16:38:38.691Z,40.77
2022-12-09T16:42:01.767Z,40.86
2022-12-09T16:45:30.460Z,41.00
2022-12-09T16:48:33.643Z,40.61
2022-12-09T16:51:39.101Z,40.87
2022-12-09T16:54:43.917Z,40.54
2022-12-09T16:57:48.862Z,40.35
2022-12-09T17:00:52.301Z,40.88
2022-12-09T17:03:59.402Z,40.72
2022-12-09T17:07:02.406Z,40.59
2022-12-09T17:10:05.987Z,40.58
2022-12-09T17:13:12.214Z,41.95
2022-12-09T17:16:15.559Z,41.96
2022-12-09T17:19:18.841Z,41.52
2022-12-09T17:22:21.825Z,41.22
2022-12-09T17:25:24.870Z,41.77
2022-12-09T17:28:30.309Z,41.99
2022-12-09T17:31:33.394Z,42.46
2022-12-09T17:34:36.503Z,42.29
2022-12-09T17:37:39.522Z,42.45
2022-12-09T17:40:42.567Z,41.87
2022-12-09T17:43:47.411Z,42.28
2022-12-09T17:46:51.186Z,42.29
2022-12-09T17:49:54.338Z,42.33
2022-12-09T17:52:57.518Z,41.97
2022-12-09T17:56:00.513Z,41.85
2022-12-09T17:59:08.326Z,41.64
2022-12-09T18:02:12.381Z,42.02
2022-12-09T18:05:16.847Z,41.89
2022-12-09T18:08:19.909Z,41.60
2022-12-09T18:11:23.145Z,42.04
2022-12-09T18:14:27.612Z,41.90
2022-12-09T18:17:32.532Z,42.06
2022-12-09T18:20:38.016Z,41.82
2022-12-09T18:23:41.972Z,41.90
2022-12-09T18:26:45.170Z,41.71
2022-12-09T18:29:49.565Z,42.17
2022-12-09T18:32:52.658Z,41.69
2022-12-09T18:35:55.743Z,41.82
2022-12-09T18:38:59.889Z,42.11
2022-12-09T18:42:03.526Z,41.73
2022-12-09T18:45:10.605Z,42.08
2022-12-09T18:48:13.693Z,41.85
2022-12-09T18:51:17.336Z,41.62
2022-12-09T18:54:24.712Z,41.89
2022-12-09T18:57:30.852Z,41.88
2022-12-09T19:00:35.592Z,41.52
2022-12-09T19:03:39.921Z,41.55
2022-12-09T19:06:45.409Z,41.11
2022-12-09T19:09:48.546Z,41.15
2022-12-09T19:12:56.403Z,41.14
2022-12-09T19:16:05.343Z,40.71
2022-12-09T19:19:10.603Z,41.11
2022-12-09T19:22:14.619Z,40.46
2022-12-09T19:25:18.128Z,40.48
2022-12-09T19:28:21.213Z,40.83
2022-12-09T19:31:28.175Z,40.51
2022-12-09T19:34:32.438Z,40.56
2022-12-09T19:37:35.514Z,40.20
2022-12-09T19:40:38.650Z,40.05
2022-12-09T19:43:41.724Z,40.19
2022-12-09T19:46:46.250Z,40.20
2022-12-09T19:49:49.515Z,40.04
2022-12-09T19:52:52.595Z,39.76
2022-12-09T19:55:55.638Z,39.59
2022-12-09T19:58:59.933Z,39.82
2022-12-09T20:02:06.452Z,40.06
2022-12-09T20:05:09.742Z,39.89
2022-12-09T20:08:12.817Z,40.25
2022-12-09T20:11:18.093Z,40.73
2022-12-09T20:14:21.347Z,40.00
2022-12-09T20:17:25.849Z,39.78
2022-12-09T20:20:28.931Z,39.60
2022-12-09T20:23:32.152Z,39.96
2022-12-09T20:26:37.324Z,39.79
2022-12-09T20:29:40.591Z,39.85
2022-12-09T20:32:45.796Z,39.86
2022-12-09T20:35:48.840Z,40.06
2022-12-09T20:38:54.047Z,39.84
2022-12-09T20:41:59.398Z,39.64
2022-12-09T20:45:02.552Z,39.50
2022-12-09T20:48:07.511Z,39.86
2022-12-09T20:51:14.170Z,39.62
2022-12-09T20:54:17.351Z,39.89
2022-12-09T20:57:20.665Z,39.51
2022-12-09T21:00:24.040Z,39.32
2022-12-09T21:03:28.546Z,39.11
2022-12-09T21:06:33.924Z,39.51
2022-12-09T21:09:37.054Z,39.15
2022-12-09T21:12:40.492Z,39.28
2022-12-09T21:15:43.498Z,39.37
2022-12-09T21:18:49.022Z,39.41
2022-12-09T21:21:52.841Z,39.68
2022-12-09T21:24:55.871Z,39.74
2022-12-09T21:27:58.840Z,39.42
2022-12-09T21:31:07.956Z,39.50
2022-12-09T21:34:12.699Z,39.48
2022-12-09T21:37:15.768Z,39.42
2022-12-09T21:40:19.050Z,39.88
2022-12-09T21:43:22.037Z,39.17
2022-12-09T21:46:26.784Z,39.42
2022-12-09T21:49:33.512Z,39.70
2022-12-09T21:52:36.549Z,39.60
2022-12-09T21:55:39.575Z,39.23
2022-12-09T21:58:43.179Z,39.65
2022-12-09T22:01:46.299Z,39.62
2022-12-09T22:04:50.795Z,39.45
2022-12-09T22:07:53.808Z,39.34
2022-12-09T22:10:58.388Z,39.86
2022-12-09T22:14:02.306Z,39.52
2022-12-09T22:17:05.649Z,39.68
2022-12-09T22:20:49.408Z,39.75
2022-12-09T22:23:35.394Z,39.71
2022-12-09T22:26:38.412Z,40.13
2022-12-09T22:29:41.514Z,40.26
2022-12-09T22:32:49.290Z,40.34
2022-12-09T22:35:55.339Z,39.99
2022-12-09T22:38:58.694Z,40.36
2022-12-09T22:42:01.709Z,40.20
2022-12-09T22:45:05.550Z,40.48
2022-12-09T22:48:08.577Z,40.36
2022-12-09T22:51:14.791Z,40.52
2022-12-09T22:54:18.123Z,40.35
2022-12-09T22:57:21.109Z,40.81
2022-12-09T23:00:24.272Z,40.88
2022-12-09T23:03:27.492Z,40.83
2022-12-09T23:06:32.150Z,40.46
2022-12-09T23:09:35.241Z,40.95
2022-12-09T23:12:38.302Z,40.84
2022-12-09T23:15:41.448Z,40.66
2022-12-09T23:18:44.629Z,40.91
2022-12-09T23:21:49.178Z,41.22
2022-12-09T23:24:52.279Z,41.20
2022-12-09T23:27:55.372Z,41.00
2022-12-09T23:30:58.522Z,41.23
2022-12-09T23:34:02.530Z,41.21
2022-12-09T23:37:07.045Z,41.63
2022-12-09T23:40:11.505Z,41.68
2022-12-09T23:43:14.503Z,41.71
2022-12-09T23:46:19.385Z,42.16
2022-12-09T23:49:22.629Z,41.87
2022-12-09T23:52:27.006Z,42.04
2022-12-09T23:55:29.977Z,41.97
2022-12-09T23:58:33.820Z,42.75
